Time;durP1;ratioP1;P1;durP2;ratioP2;P2;SDS_P1;SDS_P2;PMS_P1;PMS_P2;Temp;Humidity;BMP_temperature;BMP_pressure;BME280_temperature;BME280_humidity;BME280_pressure;Samples;Min_cycle;Max_cycle;Signal;HPM_P1;HPM_P2
2021/12/16 16:40:49;;;;;;;2.20;2.10;;;5.80;99.90;;;;;;7393776;19;20735;-81
2021/12/16 16:51:50;;;;;;;2.65;2.40;;;5.70;99.90;;;;;;7385245;19;20394;-79
2021/12/16 16:55:44;;;;;;;3.10;2.55;;;5.60;99.90;;;;;;7416280;19;20393;-79
2021/12/16 17:19:41;;;;;;;2.50;2.30;;;5.30;99.90;;;;;;7421574;19;20344;-80
2021/12/16 17:32:41;;;;;;;4.28;3.05;;;5.20;99.90;;;;;;7330694;19;20412;-79
2021/12/16 18:15:03;;;;;;;3.45;2.67;;;4.60;99.90;;;;;;7410576;19;20856;-83
2021/12/16 18:18:26;;;;;;;3.45;3.15;;;4.60;99.90;;;;;;7277891;19;2004499;-81
2021/12/16 18:21:41;;;;;;;3.07;2.77;;;4.70;99.90;;;;;;7174846;19;2004587;-80
2021/12/16 18:24:37;;;;;;;3.10;2.80;;;4.70;99.90;;;;;;7263499;19;2004399;-82
2021/12/16 18:30:19;;;;;;;4.57;3.58;;;4.40;99.90;;;;;;7281962;19;2004387;-84
2021/12/16 18:33:23;;;;;;;5.67;4.30;;;4.50;99.90;;;;;;7213734;19;2004243;-81
2021/12/16 18:35:52;;;;;;;5.97;3.77;;;4.50;99.90;;;;;;7366336;19;20293;-80
2021/12/16 18:38:25;;;;;;;5.40;3.97;;;4.50;99.90;;;;;;7386124;19;20328;-80
2021/12/16 18:40:52;;;;;;;5.53;3.65;;;4.50;99.90;;;;;;7363872;19;20387;-81
2021/12/16 18:43:21;;;;;;;4.07;3.67;;;4.50;99.90;;;;;;7382947;19;20301;-80
2021/12/16 18:45:50;;;;;;;3.88;3.58;;;4.50;99.90;;;;;;7381857;19;20356;-80
2021/12/16 18:56:55;;;;;;;3.83;3.47;;;4.50;99.90;;;;;;7364199;19;20321;-79
2021/12/16 18:59:21;;;;;;;3.85;3.53;;;4.40;99.90;;;;;;7381716;19;20355;-80
2021/12/16 19:01:50;;;;;;;3.80;3.50;;;4.40;99.90;;;;;;7388057;19;20375;-79
2021/12/16 19:04:17;;;;;;;3.90;3.50;;;4.40;99.90;;;;;;7392367;19;20746;-78
2021/12/16 19:06:44;;;;;;;4.40;4.00;;;4.30;99.90;;;;;;7370360;19;20384;-81
2021/12/16 19:09:12;;;;;;;3.60;3.30;;;4.30;99.90;;;;;;7389200;19;20347;-79
2021/12/16 19:11:51;;;;;;;4.38;3.55;;;4.30;99.90;;;;;;7392842;19;20868;-82
2021/12/16 19:14:21;;;;;;;3.80;3.40;;;4.30;99.90;;;;;;7291509;19;2005990;-79
2021/12/16 19:16:49;;;;;;;5.97;4.97;;;4.30;99.90;;;;;;7394422;19;20304;-79
2021/12/16 19:19:16;;;;;;;7.35;5.50;;;4.30;99.90;;;;;;7389986;19;20347;-81
2021/12/16 19:21:42;;;;;;;6.43;5.22;;;4.30;99.90;;;;;;7368055;19;20741;-81
2021/12/16 19:24:10;;;;;;;4.25;3.67;;;4.30;99.90;;;;;;7389594;19;20317;-79
2021/12/16 19:26:36;;;;;;;5.15;4.07;;;4.20;99.90;;;;;;7391685;19;20365;-80
2021/12/16 19:29:04;;;;;;;5.65;4.10;;;4.20;99.90;;;;;;7391482;19;20320;-79
2021/12/16 19:31:32;;;;;;;3.97;3.67;;;4.30;99.90;;;;;;7394725;19;20354;-82
2021/12/16 19:34:01;;;;;;;4.90;4.30;;;4.20;99.90;;;;;;7363430;19;20722;-79
2021/12/16 19:36:31;;;;;;;6.47;5.70;;;4.10;99.90;;;;;;7391785;19;20355;-79
2021/12/16 19:38:57;;;;;;;7.78;4.53;;;4.10;99.90;;;;;;7394837;19;20324;-79
2021/12/16 19:41:26;;;;;;;4.72;4.03;;;4.10;99.90;;;;;;7390954;19;20351;-79
2021/12/16 19:43:53;;;;;;;4.40;3.67;;;4.20;99.90;;;;;;7389314;19;20329;-79
2021/12/16 19:46:19;;;;;;;4.35;3.85;;;4.10;99.90;;;;;;7394427;19;20402;-81
2021/12/16 19:48:48;;;;;;;4.97;3.80;;;4.20;99.90;;;;;;7386787;19;20349;-80
2021/12/16 19:51:16;;;;;;;4.70;4.22;;;4.10;99.90;;;;;;7393711;19;20345;-79
2021/12/16 19:53:44;;;;;;;5.05;4.55;;;4.10;99.90;;;;;;7394258;19;21011;-79
2021/12/16 19:56:10;;;;;;;5.60;4.55;;;4.10;99.90;;;;;;7333873;19;20358;-79
2021/12/16 19:58:37;;;;;;;4.38;3.97;;;4.30;99.90;;;;;;7392493;19;20337;-81
2021/12/16 20:01:07;;;;;;;6.30;4.70;;;4.10;99.90;;;;;;7377128;19;20324;-83
2021/12/16 20:03:35;;;;;;;5.90;4.70;;;4.10;99.90;;;;;;7390816;19;20840;-79
2021/12/16 20:06:03;;;;;;;5.53;4.50;;;4.10;99.90;;;;;;7371406;19;20344;-79
2021/12/16 20:08:29;;;;;;;4.90;4.40;;;4.10;99.90;;;;;;7388357;19;20317;-79
2021/12/16 20:10:57;;;;;;;5.20;4.65;;;4.10;99.90;;;;;;7370940;19;20339;-80
2021/12/16 20:13:26;;;;;;;5.95;4.63;;;4.10;99.90;;;;;;7387510;19;20402;-79
2021/12/16 20:16:19;;;;;;;7.30;4.55;;;4.10;99.90;;;;;;7388683;19;21154;-79
2021/12/16 20:18:46;;;;;;;7.38;4.72;;;4.10;99.90;;;;;;7374207;19;20334;-80
2021/12/16 20:21:21;;;;;;;4.77;4.30;;;4.10;99.90;;;;;;7390544;19;20348;-79
2021/12/16 20:23:50;;;;;;;4.72;4.25;;;4.10;99.90;;;;;;7384397;19;20359;-79
2021/12/16 20:26:19;;;;;;;7.90;5.22;;;4.00;99.90;;;;;;7371408;19;20324;-81
2021/12/16 20:29:17;;;;;;;5.43;4.47;;;4.10;99.90;;;;;;7391206;19;20312;-79
2021/12/16 20:31:48;;;;;;;5.90;4.88;;;4.00;99.90;;;;;;7298779;19;2004239;-79
2021/12/16 20:34:17;;;;;;;4.85;4.35;;;4.00;99.90;;;;;;7404231;19;20313;-80
2021/12/16 20:36:46;;;;;;;5.15;4.65;;;4.00;99.90;;;;;;7395205;19;20308;-78
2021/12/16 20:39:24;;;;;;;5.38;4.70;;;4.00;99.90;;;;;;7375021;19;20439;-79
2021/12/16 20:42:03;;;;;;;5.80;4.43;;;4.00;99.90;;;;;;7396450;19;20315;-78
2021/12/16 20:44:30;;;;;;;6.57;4.32;;;4.00;99.90;;;;;;7392127;19;20374;-79
2021/12/16 20:46:59;;;;;;;5.35;4.50;;;4.00;99.90;;;;;;7387406;19;20352;-79
2021/12/16 20:49:28;;;;;;;5.60;4.90;;;3.90;99.90;;;;;;7365419;19;20329;-78
2021/12/16 20:52:06;;;;;;;5.35;4.85;;;4.00;99.90;;;;;;7390483;19;20345;-79
2021/12/16 20:54:34;;;;;;;6.90;4.80;;;3.90;99.90;;;;;;7262381;19;2004572;-79
2021/12/16 20:56:59;;;;;;;5.65;4.63;;;4.00;99.90;;;;;;7386269;19;20697;-80
2021/12/16 20:59:30;;;;;;;5.00;4.40;;;3.90;99.90;;;;;;7388771;19;20348;-81
2021/12/16 21:02:08;;;;;;;7.45;4.85;;;3.90;99.90;;;;;;7372098;19;20344;-83
2021/12/16 21:04:35;;;;;;;7.32;5.35;;;3.80;99.90;;;;;;7271954;19;2004439;-81
2021/12/16 21:07:06;;;;;;;7.03;5.18;;;3.90;99.90;;;;;;7387752;19;20336;-81
2021/12/16 21:09:33;;;;;;;6.95;5.13;;;3.90;99.90;;;;;;7388028;19;20412;-81
2021/12/16 21:12:00;;;;;;;5.05;4.55;;;4.00;99.90;;;;;;7374599;19;20340;-83
2021/12/16 21:14:26;;;;;;;8.93;6.90;;;3.90;99.90;;;;;;7361487;19;20367;-83
2021/12/16 21:16:52;;;;;;;6.70;5.78;;;3.90;99.90;;;;;;7384387;19;20333;-82
2021/12/16 21:19:19;;;;;;;6.53;5.63;;;3.90;99.90;;;;;;7384902;19;20324;-82
2021/12/16 21:21:45;;;;;;;7.22;6.50;;;3.80;99.90;;;;;;7386635;19;20348;-80
2021/12/16 21:24:11;;;;;;;7.00;5.88;;;3.80;99.90;;;;;;7379537;19;20348;-82
2021/12/16 21:26:37;;;;;;;6.45;5.72;;;3.80;99.90;;;;;;7386272;19;20367;-82
2021/12/16 21:29:04;;;;;;;7.18;5.68;;;3.80;99.90;;;;;;7384541;19;20790;-82
2021/12/16 21:31:29;;;;;;;5.93;5.38;;;3.80;99.90;;;;;;7384859;19;21170;-83
2021/12/16 21:33:59;;;;;;;6.40;5.17;;;3.70;99.90;;;;;;7391316;19;20309;-81
2021/12/16 21:36:28;;;;;;;6.30;5.70;;;3.80;99.90;;;;;;7372736;19;20351;-82
2021/12/16 21:38:55;;;;;;;8.88;5.45;;;3.80;99.90;;;;;;7391505;19;20340;-82
2021/12/16 21:41:22;;;;;;;6.05;5.45;;;3.80;99.90;;;;;;7391917;19;20322;-83
2021/12/16 21:43:48;;;;;;;8.00;5.70;;;3.80;99.90;;;;;;7390854;19;20337;-79
2021/12/16 21:46:16;;;;;;;6.90;5.18;;;3.80;99.90;;;;;;7388150;19;20321;-79
2021/12/16 21:48:42;;;;;;;6.47;5.22;;;3.80;99.90;;;;;;7388668;19;20316;-79
2021/12/16 21:51:08;;;;;;;5.20;4.28;;;3.80;99.90;;;;;;7370878;19;20353;-81
2021/12/16 21:53:34;;;;;;;5.75;4.63;;;3.80;99.90;;;;;;7360228;19;20356;-79
2021/12/16 21:56:00;;;;;;;6.85;5.47;;;3.90;99.90;;;;;;7369098;19;20328;-79
2021/12/16 21:58:28;;;;;;;5.95;5.32;;;3.90;99.90;;;;;;7389684;19;20348;-79
2021/12/16 22:00:56;;;;;;;6.63;5.25;;;3.80;99.90;;;;;;7374069;19;20347;-86
2021/12/16 22:03:26;;;;;;;6.90;5.93;;;4.00;99.90;;;;;;7398332;19;21001;-85
2021/12/16 22:05:53;;;;;;;6.97;5.37;;;3.90;99.90;;;;;;7391650;19;20331;-81
2021/12/16 22:08:19;;;;;;;7.15;5.80;;;4.00;99.90;;;;;;7370770;19;20654;-81
2021/12/16 22:10:45;;;;;;;5.90;5.27;;;4.00;99.90;;;;;;7390727;19;20315;-79
2021/12/16 22:13:10;;;;;;;5.82;5.30;;;4.10;99.90;;;;;;7395534;19;20852;-82
2021/12/16 22:15:37;;;;;;;6.60;5.00;;;4.20;99.90;;;;;;7387386;19;20355;-79
2021/12/16 22:18:05;;;;;;;6.57;5.63;;;4.10;99.90;;;;;;7383311;19;20340;-81
2021/12/16 22:20:32;;;;;;;9.93;6.10;;;4.10;99.90;;;;;;7386883;19;20332;-80
2021/12/16 22:22:58;;;;;;;6.40;5.22;;;4.20;99.90;;;;;;7389494;19;20779;-81
2021/12/16 22:25:24;;;;;;;7.50;6.10;;;4.20;99.90;;;;;;7399201;19;20333;-80
2021/12/16 22:27:50;;;;;;;7.37;6.07;;;4.20;99.90;;;;;;7395405;19;20385;-79
2021/12/16 22:30:16;;;;;;;6.07;5.37;;;4.30;99.90;;;;;;7390949;19;20316;-79
2021/12/16 22:32:42;;;;;;;8.52;6.18;;;4.20;99.90;;;;;;7392024;19;20677;-80
2021/12/16 22:35:09;;;;;;;6.13;5.53;;;4.30;99.90;;;;;;7394608;19;20332;-80
2021/12/16 22:37:37;;;;;;;6.75;5.88;;;4.20;99.90;;;;;;7395801;19;20341;-82
2021/12/16 22:40:08;;;;;;;5.95;5.38;;;4.30;99.90;;;;;;7397094;19;20425;-79
2021/12/16 22:42:38;;;;;;;8.07;5.68;;;4.20;99.90;;;;;;7395566;19;20320;-80
2021/12/16 22:45:06;;;;;;;6.45;5.75;;;4.30;99.90;;;;;;7396814;19;20857;-80
2021/12/16 22:47:33;;;;;;;8.50;5.97;;;4.40;99.90;;;;;;7394835;19;20321;-80
2021/12/16 22:49:59;;;;;;;6.47;5.78;;;4.40;99.90;;;;;;7397017;19;20317;-80
2021/12/16 22:52:25;;;;;;;7.32;6.18;;;4.40;99.90;;;;;;7393633;19;20324;-81
2021/12/16 22:54:50;;;;;;;6.53;5.80;;;4.60;99.90;;;;;;7392050;19;20340;-79
2021/12/16 22:57:16;;;;;;;8.07;6.47;;;4.50;99.90;;;;;;7396907;19;20393;-79
2021/12/16 22:59:43;;;;;;;6.43;5.80;;;4.50;99.90;;;;;;7397761;19;20400;-79
2021/12/16 23:02:17;;;;;;;5.97;5.23;;;4.50;99.90;;;;;;7398221;19;20309;-80
2021/12/16 23:04:46;;;;;;;6.93;5.70;;;4.60;99.90;;;;;;7294553;19;2020304;-83
2021/12/16 23:07:12;;;;;;;6.97;5.90;;;4.60;99.90;;;;;;7396273;19;20361;-81
2021/12/16 23:09:43;;;;;;;6.63;5.93;;;4.60;99.90;;;;;;7382749;19;20328;-81
2021/12/16 23:12:09;;;;;;;7.00;6.03;;;4.60;99.90;;;;;;7383579;19;20309;-82
2021/12/16 23:14:40;;;;;;;6.32;5.68;;;4.60;99.90;;;;;;7384604;19;20345;-80
2021/12/16 23:25:03;;;;;;;8.10;5.95;;;4.70;99.90;;;;;;7391638;19;20337;-80
2021/12/16 23:27:29;;;;;;;6.68;5.15;;;4.70;99.90;;;;;;7392061;19;20400;-80
2021/12/16 23:29:54;;;;;;;6.45;5.57;;;4.70;99.90;;;;;;7392482;19;20750;-80
2021/12/16 23:32:22;;;;;;;7.07;5.80;;;4.70;99.90;;;;;;7389850;19;20324;-80
2021/12/16 23:34:47;;;;;;;6.95;5.60;;;4.80;99.90;;;;;;7388382;19;20316;-83
2021/12/16 23:37:13;;;;;;;6.73;5.67;;;4.80;99.90;;;;;;7394306;19;20303;-82
2021/12/16 23:39:39;;;;;;;7.68;5.97;;;4.80;99.90;;;;;;7387550;19;20384;-80
2021/12/16 23:45:26;;;;;;;8.27;6.03;;;4.80;99.90;;;;;;7387884;19;20316;-81
2021/12/16 23:53:16;;;;;;;6.72;5.47;;;4.80;99.90;;;;;;7290628;19;2007056;-81
2021/12/16 23:55:43;;;;;;;8.20;5.57;;;4.80;99.90;;;;;;7393618;19;20312;-81
2021/12/16 23:58:09;;;;;;;6.45;5.43;;;4.90;99.90;;;;;;7392371;19;20695;-81
